Time;durP1;ratioP1;P1;durP2;ratioP2;P2;SDS_P1;SDS_P2;PMS_P1;PMS_P2;Temp;Humidity;BMP_temperature;BMP_pressure;BME280_temperature;BME280_humidity;BME280_pressure;Samples;Min_cycle;Max_cycle;Signal;HPM_P1;HPM_P2
2023/06/21 00:01:19;;;;;;;10.73;7.07;;;;;;;18.13;100.00;64876.53;5051769;28;20683;-57
2023/06/21 00:03:45;;;;;;;9.65;6.88;;;;;;;18.02;100.00;64866.94;5070126;28;20730;-57
2023/06/21 00:06:10;;;;;;;12.65;7.15;;;;;;;17.97;100.00;64864.00;5073593;28;20261;-61
2023/06/21 00:08:36;;;;;;;9.48;7.00;;;;;;;17.81;100.00;64843.81;5073524;28;20293;-60
2023/06/21 00:11:01;;;;;;;8.38;6.40;;;;;;;17.70;100.00;64834.22;5073559;28;20209;-60
2023/06/21 00:13:27;;;;;;;9.52;6.85;;;;;;;17.70;100.00;64831.13;5073471;28;20213;-60
2023/06/21 00:15:54;;;;;;;8.13;6.65;;;;;;;17.73;100.00;64835.00;5073373;28;20207;-59
2023/06/21 00:18:20;;;;;;;7.78;6.97;;;;;;;17.73;100.00;64831.88;5073324;28;20293;-61
2023/06/21 00:20:46;;;;;;;10.82;7.35;;;;;;;17.67;100.00;64828.38;5073196;28;20618;-60
2023/06/21 00:23:12;;;;;;;10.35;6.82;;;;;;;17.70;100.00;64833.66;5072954;28;20217;-62
2023/06/21 00:25:37;;;;;;;8.38;6.95;;;;;;;17.75;100.00;64836.63;5073040;28;20230;-59
2023/06/21 00:28:03;;;;;;;7.88;6.00;;;;;;;17.65;100.00;64826.16;5073165;28;20204;-59
2023/06/21 00:30:28;;;;;;;7.63;6.82;;;;;;;17.60;100.00;64820.66;5073578;28;20213;-61
2023/06/21 00:32:54;;;;;;;8.23;6.72;;;;;;;17.55;100.00;64817.69;5073086;28;20197;-59
2023/06/21 00:35:20;;;;;;;9.60;7.53;;;;;;;17.69;100.00;64830.03;5073272;28;20209;-61
2023/06/21 00:37:46;;;;;;;7.65;6.70;;;;;;;17.77;100.00;64839.41;5073072;28;20221;-59
2023/06/21 00:40:12;;;;;;;7.57;6.80;;;;;;;17.73;100.00;64835.00;5072851;28;20300;-60
2023/06/21 00:42:38;;;;;;;8.18;6.43;;;;;;;17.61;100.00;64826.84;5072677;28;20220;-60
2023/06/21 00:45:05;;;;;;;7.78;6.95;;;;;;;17.55;100.00;64815.69;5072842;28;20208;-59
2023/06/21 00:47:31;;;;;;;7.70;6.35;;;;;;;17.63;100.00;64823.97;5072765;28;20637;-61
2023/06/21 00:49:57;;;;;;;9.23;6.35;;;;;;;17.60;100.00;64823.19;5073173;28;20219;-58
2023/06/21 00:52:23;;;;;;;9.15;7.30;;;;;;;17.69;100.00;64830.56;5054779;28;20201;-59
2023/06/21 00:54:48;;;;;;;8.40;6.57;;;;;;;17.72;100.00;64833.88;5073024;28;20250;-58
2023/06/21 00:57:14;;;;;;;8.13;7.28;;;;;;;17.70;100.00;64834.22;5072906;28;20307;-61
2023/06/21 00:59:39;;;;;;;7.82;7.03;;;;;;;17.60;100.00;64823.75;5073022;28;20636;-56
2023/06/21 01:02:05;;;;;;;10.07;7.32;;;;;;;17.54;100.00;64816.59;5072512;28;20213;-57
2023/06/21 01:04:33;;;;;;;7.82;7.03;;;;;;;17.49;100.00;64809.06;5072573;28;20217;-64
2023/06/21 01:07:05;;;;;;;12.15;7.35;;;;;;;17.42;100.00;64800.78;5072719;28;20197;-56
2023/06/21 01:09:56;;;;;;;7.75;6.95;;;;;;;17.41;100.00;64802.78;5072549;28;20224;-61
2023/06/21 01:12:56;;;;;;;9.43;7.05;;;;;;;17.36;100.00;64794.75;5072153;28;20340;-62
2023/06/21 01:15:34;;;;;;;8.50;7.40;;;;;;;17.35;100.00;64793.63;5071610;28;20211;-61
2023/06/21 01:18:01;;;;;;;10.57;7.07;;;;;;;17.38;100.00;64796.38;5053818;28;20205;-60
2023/06/21 01:20:34;;;;;;;8.35;7.30;;;;;;;17.39;100.00;64800.03;5054029;28;20618;-60
2023/06/21 01:23:28;;;;;;;9.07;7.00;;;;;;;17.37;100.00;64795.81;5053535;28;20290;-60
2023/06/21 01:26:11;;;;;;;9.45;7.22;;;;;;;17.49;100.00;64808.53;5071915;28;20197;-60
2023/06/21 01:28:47;;;;;;;8.63;6.97;;;;;;;17.48;100.00;64809.94;5071973;28;20262;-56
2023/06/21 01:31:16;;;;;;;7.97;6.93;;;;;;;17.38;100.00;64796.38;5072025;28;20212;-58
2023/06/21 01:33:42;;;;;;;8.10;7.30;;;;;;;17.40;100.00;64801.69;5070463;28;20644;-61
2023/06/21 01:36:10;;;;;;;8.85;6.68;;;;;;;17.25;100.00;64785.16;5071573;28;20222;-60
2023/06/21 01:38:35;;;;;;;9.82;7.90;;;;;;;17.44;100.00;64806.09;5071591;28;20212;-60
2023/06/21 01:41:01;;;;;;;9.55;7.32;;;;;;;17.40;100.00;64803.69;5070555;28;20287;-57
2023/06/21 01:43:29;;;;;;;9.60;7.63;;;;;;;17.43;100.00;64801.91;5071412;28;20225;-57
2023/06/21 01:45:55;;;;;;;10.32;7.00;;;;;;;17.45;100.00;64804.66;5071189;28;20205;-57
2023/06/21 01:48:22;;;;;;;11.48;8.45;;;;;;;17.39;100.00;64800.03;5071105;28;20699;-58
2023/06/21 01:50:50;;;;;;;11.00;8.25;;;;;;;17.33;100.00;64790.88;5071451;28;20228;-57
2023/06/21 01:53:17;;;;;;;9.15;8.07;;;;;;;17.23;100.00;64782.94;5071290;28;20232;-57
2023/06/21 01:55:48;;;;;;;9.13;7.50;;;;;;;17.33;100.00;64790.88;5071643;28;20679;-58
2023/06/21 01:58:15;;;;;;;10.02;8.27;;;;;;;17.09;100.00;64764.97;5071068;28;20216;-58
2023/06/21 02:00:41;;;;;;;8.23;7.25;;;;;;;17.18;100.00;64774.34;5071420;28;20200;-58
2023/06/21 02:03:09;;;;;;;9.93;7.88;;;;;;;17.24;100.00;64780.97;5071285;28;20221;-56
2023/06/21 02:05:35;;;;;;;9.60;8.13;;;;;;;17.37;100.00;64797.84;5071664;28;20295;-61
2023/06/21 02:08:04;;;;;;;9.50;7.60;;;;;;;17.29;100.00;64786.47;5071596;28;20283;-59
2023/06/21 02:10:30;;;;;;;10.85;9.05;;;;;;;17.36;100.00;64791.63;5071501;28;20300;-60
2023/06/21 02:12:56;;;;;;;10.05;8.38;;;;;;;17.36;100.00;64796.72;5071546;28;20240;-57
2023/06/21 02:15:23;;;;;;;10.32;7.53;;;;;;;17.31;100.00;64791.22;5071420;28;20197;-57
2023/06/21 02:17:49;;;;;;;10.10;8.07;;;;;;;17.27;100.00;64784.28;5071356;28;20213;-57
2023/06/21 02:20:16;;;;;;;11.07;8.10;;;;;;;17.24;100.00;64784.06;5071168;28;20973;-61
2023/06/21 02:22:43;;;;;;;11.10;8.93;;;;;;;17.29;100.00;64789.56;5071393;28;20253;-60
2023/06/21 02:25:09;;;;;;;9.88;8.52;;;;;;;17.31;100.00;64789.22;5071198;28;20702;-60
2023/06/21 02:27:35;;;;;;;9.55;8.50;;;;;;;17.35;100.00;64793.63;5070347;28;20209;-58
2023/06/21 02:30:00;;;;;;;8.98;8.07;;;;;;;17.30;100.00;64787.56;5071435;28;20212;-59
2023/06/21 02:32:26;;;;;;;10.50;7.75;;;;;;;17.28;100.00;64785.38;5071317;28;20208;-59
2023/06/21 02:34:51;;;;;;;10.90;7.70;;;;;;;17.16;100.00;64770.16;5071224;28;20592;-59
2023/06/21 02:37:17;;;;;;;10.27;9.07;;;;;;;17.21;100.00;64777.66;5071289;28;20658;-58
2023/06/21 02:39:42;;;;;;;8.85;7.75;;;;;;;17.14;100.00;64772.50;5070983;28;20212;-58
2023/06/21 02:42:08;;;;;;;9.38;7.70;;;;;;;17.10;100.00;64766.09;5071037;28;20299;-60
2023/06/21 02:44:33;;;;;;;13.77;9.15;;;;;;;17.07;100.00;64762.25;5070764;28;20220;-59
2023/06/21 02:46:59;;;;;;;9.63;8.43;;;;;;;17.13;100.00;64771.94;5070641;28;20287;-57
2023/06/21 02:49:25;;;;;;;10.18;8.10;;;;;;;17.06;100.00;64761.69;5071485;28;20225;-58
2023/06/21 02:51:51;;;;;;;11.02;7.80;;;;;;;17.09;100.00;64767.53;5070971;28;20273;-60
2023/06/21 02:54:17;;;;;;;10.75;7.90;;;;;;;17.23;100.00;64782.94;5071242;28;20212;-60
2023/06/21 02:56:43;;;;;;;9.20;8.25;;;;;;;17.19;100.00;64775.47;5071154;28;20200;-57
2023/06/21 02:59:09;;;;;;;9.23;8.23;;;;;;;17.08;100.00;64766.44;5071155;28;20220;-56
2023/06/21 03:01:35;;;;;;;9.07;7.97;;;;;;;17.05;100.00;64757.50;5070810;28;20209;-56
2023/06/21 03:04:00;;;;;;;9.80;8.43;;;;;;;17.03;100.00;64755.28;5070708;28;20308;-59
2023/06/21 03:06:29;;;;;;;9.85;7.70;;;;;;;17.15;100.00;64771.06;5070751;28;20204;-57
2023/06/21 03:08:54;;;;;;;9.05;6.93;;;;;;;17.21;100.00;64775.66;5071192;28;20216;-58
2023/06/21 03:11:20;;;;;;;12.15;8.20;;;;;;;17.30;100.00;64790.13;5070783;28;20200;-56
2023/06/21 03:13:45;;;;;;;11.23;8.23;;;;;;;17.37;100.00;64797.84;5070797;28;20299;-57
2023/06/21 03:16:10;;;;;;;12.40;7.93;;;;;;;17.30;100.00;64790.66;5070591;28;20582;-56
2023/06/21 03:18:36;;;;;;;8.90;7.57;;;;;;;17.21;100.00;64778.19;5070840;28;20211;-56
2023/06/21 03:21:01;;;;;;;11.38;8.57;;;;;;;17.09;100.00;64764.44;5070461;28;20197;-57
2023/06/21 03:23:27;;;;;;;13.32;9.15;;;;;;;17.16;100.00;64769.59;5070559;28;20317;-59
2023/06/21 03:25:53;;;;;;;10.00;8.60;;;;;;;17.12;100.00;64770.28;5052732;28;20628;-60
2023/06/21 03:28:18;;;;;;;21.08;9.02;;;;;;;17.14;100.00;64769.94;5070365;28;20216;-60
2023/06/21 03:30:44;;;;;;;10.35;8.20;;;;;;;16.98;100.00;64755.41;5052677;28;20258;-59
2023/06/21 03:33:10;;;;;;;17.70;9.77;;;;;;;17.04;100.00;64761.47;5069522;28;20258;-56
2023/06/21 03:35:36;;;;;;;14.20;10.57;;;;;;;17.06;100.00;64761.13;5070430;28;20201;-60
2023/06/21 03:38:02;;;;;;;10.70;8.50;;;;;;;17.01;100.00;64753.09;5070156;28;20335;-59
2023/06/21 03:40:28;;;;;;;12.60;8.43;;;;;;;17.00;100.00;64754.53;5073126;28;20586;-61
2023/06/21 03:42:53;;;;;;;9.23;7.65;;;;;;;16.89;100.00;64742.41;5073655;28;20216;-60
2023/06/21 03:45:19;;;;;;;11.88;8.20;;;;;;;16.90;100.00;64746.06;5073838;28;20697;-61
2023/06/21 03:47:45;;;;;;;10.43;7.90;;;;;;;16.84;100.00;64736.91;5073776;28;20225;-59
2023/06/21 03:50:11;;;;;;;12.95;8.27;;;;;;;16.77;100.00;64732.28;5073671;28;20231;-61
2023/06/21 03:52:38;;;;;;;9.27;7.85;;;;;;;16.73;100.00;64725.88;5055543;28;20196;-60
2023/06/21 03:55:05;;;;;;;9.68;8.18;;;;;;;16.77;100.00;64732.84;5073697;28;20212;-56
2023/06/21 03:57:30;;;;;;;10.75;7.55;;;;;;;16.57;100.00;64710.25;5073502;28;20200;-58
2023/06/21 03:59:55;;;;;;;8.80;7.90;;;;;;;16.67;100.00;64721.81;5073823;28;20569;-61
2023/06/21 04:02:21;;;;;;;10.60;8.18;;;;;;;16.71;100.00;64723.69;5055420;28;20232;-58
2023/06/21 04:04:56;;;;;;;9.70;8.10;;;;;;;16.80;100.00;64730.50;5073855;28;20223;-56
2023/06/21 04:07:23;;;;;;;10.65;7.65;;;;;;;16.69;100.00;64723.47;5073346;28;20227;-58
2023/06/21 04:09:48;;;;;;;11.70;8.75;;;;;;;16.67;100.00;64721.28;5073422;28;20216;-56
2023/06/21 04:12:14;;;;;;;11.02;8.27;;;;;;;16.74;100.00;64729.53;5073283;28;20200;-61
2023/06/21 04:14:40;;;;;;;11.73;8.80;;;;;;;16.81;100.00;64733.59;5073359;28;20717;-57
2023/06/21 04:17:06;;;;;;;8.88;7.95;;;;;;;16.72;100.00;64724.25;5073398;28;20197;-60
2023/06/21 04:19:31;;;;;;;12.93;8.30;;;;;;;16.86;100.00;64739.09;5073580;28;20209;-57
2023/06/21 04:21:57;;;;;;;11.05;8.30;;;;;;;16.98;100.00;64752.31;5073324;28;20679;-55
2023/06/21 04:24:22;;;;;;;13.43;8.10;;;;;;;16.95;100.00;64752.09;5073514;28;20292;-57
2023/06/21 04:26:50;;;;;;;10.45;8.13;;;;;;;17.15;100.00;64773.59;5073309;28;20197;-56
2023/06/21 04:29:20;;;;;;;9.25;7.72;;;;;;;16.98;100.00;64755.41;5073288;28;20213;-56
2023/06/21 04:31:45;;;;;;;10.88;8.65;;;;;;;17.14;100.00;64770.50;5073212;28;20645;-56
2023/06/21 04:34:10;;;;;;;9.02;8.13;;;;;;;16.98;100.00;64755.41;5073040;28;20237;-56
2023/06/21 04:36:37;;;;;;;12.15;7.85;;;;;;;17.14;100.00;64772.50;5073098;28;20682;-57
2023/06/21 04:39:02;;;;;;;11.88;8.18;;;;;;;17.26;100.00;64785.72;5073203;28;20220;-61
2023/06/21 04:41:28;;;;;;;11.73;8.55;;;;;;;17.30;100.00;64793.22;5072911;28;20196;-60
2023/06/21 04:43:54;;;;;;;10.10;7.80;;;;;;;17.40;100.00;64799.16;5072787;28;20208;-57
2023/06/21 04:46:21;;;;;;;10.43;8.38;;;;;;;17.55;100.00;64820.25;5072848;28;20220;-57
2023/06/21 04:48:47;;;;;;;8.98;7.40;;;;;;;17.63;100.00;64823.97;5072870;28;20682;-57
2023/06/21 04:51:15;;;;;;;11.55;8.48;;;;;;;17.75;100.00;64839.75;5071731;28;20184;-60
2023/06/21 04:53:43;;;;;;;12.65;8.52;;;;;;;17.79;100.00;64844.16;5054679;28;20216;-61
2023/06/21 04:56:12;;;;;;;10.18;8.63;;;;;;;17.98;100.00;64862.53;5072955;28;20207;-60
2023/06/21 04:58:39;;;;;;;13.05;8.85;;;;;;;18.15;100.00;64878.75;5054577;28;20288;-56
2023/06/21 05:01:05;;;;;;;9.75;8.65;;;;;;;18.26;100.00;64892.88;5072814;28;20682;-57
2023/06/21 05:03:32;;;;;;;10.50;8.70;;;;;;;18.16;100.00;64879.28;5072609;28;20221;-58
2023/06/21 05:05:59;;;;;;;11.23;8.85;;;;;;;18.11;100.00;64876.88;5072404;28;20201;-61
2023/06/21 05:08:24;;;;;;;11.70;8.65;;;;;;;18.14;100.00;64880.19;5054699;28;20216;-61
2023/06/21 05:10:50;;;;;;;10.43;9.30;;;;;;;18.11;100.00;64879.44;5072482;28;20193;-61
2023/06/21 05:13:15;;;;;;;12.63;9.20;;;;;;;18.25;100.00;64894.88;5072456;28;20213;-58
2023/06/21 05:15:40;;;;;;;9.77;8.77;;;;;;;18.30;100.00;64897.81;5072418;28;20197;-61
2023/06/21 05:18:06;;;;;;;10.15;8.95;;;;;;;18.41;100.00;64912.50;5072201;28;20247;-60
2023/06/21 05:20:32;;;;;;;11.55;8.43;;;;;;;18.40;100.00;64906.28;5072354;28;20185;-60
2023/06/21 05:22:57;;;;;;;12.82;9.75;;;;;;;18.40;100.00;64908.31;5072378;28;20224;-61
2023/06/21 05:25:23;;;;;;;11.65;8.35;;;;;;;18.59;100.00;64928.72;5072256;28;20203;-61
2023/06/21 05:27:48;;;;;;;11.80;8.98;;;;;;;18.77;100.00;64951.13;5072262;28;20224;-57
2023/06/21 05:30:14;;;;;;;14.30;9.40;;;;;;;19.07;100.00;64979.13;5072215;28;20209;-62
2023/06/21 05:32:39;;;;;;;12.18;9.80;;;;;;;19.03;100.00;64977.28;5072195;28;20197;-59
2023/06/21 05:35:05;;;;;;;14.10;9.05;;;;;;;19.05;100.00;64977.47;5072140;28;20216;-60
2023/06/21 05:37:30;;;;;;;12.63;8.98;;;;;;;19.36;100.00;65013.72;5072132;28;20203;-60
2023/06/21 05:40:00;;;;;;;15.43;9.75;;;;;;;19.39;100.00;65013.94;5052592;28;20220;-60
2023/06/21 05:42:26;;;;;;;10.65;8.05;;;;;;;19.87;100.00;65069.50;5070101;28;20216;-59
2023/06/21 05:44:51;;;;;;;10.32;8.05;;;;;;;20.79;100.00;65170.59;5054004;28;20208;-61
2023/06/21 05:47:17;;;;;;;11.07;8.00;;;;;;;21.23;100.00;65216.72;5071815;28;20205;-63
2023/06/21 05:49:42;;;;;;;10.95;8.73;;;;;;;21.53;99.25;65249.88;5071309;28;20205;-57
2023/06/21 05:52:08;;;;;;;12.05;9.13;;;;;;;21.57;97.10;65253.78;5071326;28;20201;-61
2023/06/21 05:54:33;;;;;;;13.18;9.35;;;;;;;21.53;97.31;65249.34;5071805;28;20254;-58
2023/06/21 05:56:59;;;;;;;10.80;8.68;;;;;;;22.28;95.30;65332.34;5071935;28;20203;-60
2023/06/21 05:59:24;;;;;;;9.93;7.80;;;;;;;22.18;93.41;65320.75;5071687;28;20212;-56
2023/06/21 06:01:49;;;;;;;11.60;7.82;;;;;;;22.09;93.37;65313.91;5071330;28;20578;-59
2023/06/21 06:04:15;;;;;;;11.88;8.05;;;;;;;22.27;94.03;65328.13;5071517;28;20243;-60
2023/06/21 06:06:41;;;;;;;11.13;9.38;;;;;;;22.32;92.52;65339.34;5071612;28;20281;-58
2023/06/21 06:09:10;;;;;;;15.38;9.38;;;;;;;22.67;94.77;65377.00;5071821;28;20240;-57
2023/06/21 06:11:36;;;;;;;10.02;8.75;;;;;;;22.51;91.48;65357.25;5053725;28;20254;-56
2023/06/21 06:14:02;;;;;;;15.18;10.05;;;;;;;22.32;88.47;65336.78;5071808;28;20205;-60
2023/06/21 06:16:27;;;;;;;18.73;10.63;;;;;;;22.06;86.16;65308.00;5071718;28;20196;-60
2023/06/21 06:18:53;;;;;;;13.73;10.43;;;;;;;21.65;95.93;65265.72;5071273;28;20262;-62
2023/06/21 06:21:21;;;;;;;15.68;11.50;;;;;;;21.52;93.82;65248.25;5071421;28;20566;-59
2023/06/21 06:23:49;;;;;;;13.45;10.07;;;;;;;21.39;97.15;65236.44;5071171;28;20308;-58
2023/06/21 06:26:14;;;;;;;22.77;10.85;;;;;;;21.47;96.42;65247.84;5036974;28;20580;-59
2023/06/21 06:28:39;;;;;;;32.90;9.57;;;;;;;21.75;100.00;65274.22;5071128;28;20213;-62
2023/06/21 06:31:05;;;;;;;14.13;10.65;;;;;;;21.76;96.47;65279.91;5071166;28;20225;-61
2023/06/21 06:33:30;;;;;;;17.17;10.68;;;;;;;21.75;95.14;65274.22;5071257;28;20695;-62
2023/06/21 06:35:56;;;;;;;14.68;11.32;;;;;;;21.73;90.99;65272.00;5071172;28;20197;-61
2023/06/21 06:38:21;;;;;;;15.98;10.68;;;;;;;21.63;90.67;65263.53;5070960;28;20342;-58
2023/06/21 06:40:47;;;;;;;16.33;10.38;;;;;;;21.43;93.36;65238.84;5070975;28;20197;-59
2023/06/21 06:43:12;;;;;;;16.20;11.35;;;;;;;21.44;97.58;65236.81;5070969;28;20225;-57
2023/06/21 06:45:38;;;;;;;13.77;10.15;;;;;;;21.49;100.00;65245.47;5070976;28;20205;-57
2023/06/21 06:48:03;;;;;;;16.77;11.80;;;;;;;21.63;96.69;65260.41;5070835;28;20730;-58
2023/06/21 06:50:29;;;;;;;16.25;10.88;;;;;;;21.98;96.72;65299.16;5071118;28;20184;-57
2023/06/21 06:52:55;;;;;;;18.27;12.65;;;;;;;22.06;91.76;65308.00;5071036;28;20234;-57
2023/06/21 06:55:20;;;;;;;14.57;10.10;;;;;;;22.11;94.91;65313.00;5071142;28;20200;-56
2023/06/21 06:57:46;;;;;;;17.88;11.70;;;;;;;22.20;95.50;65322.97;5070809;28;20203;-58
2023/06/21 07:00:13;;;;;;;17.33;10.18;;;;;;;22.45;95.34;65350.63;5070679;28;20232;-58
2023/06/21 07:02:38;;;;;;;15.00;10.27;;;;;;;22.59;94.26;65365.59;5070452;28;20710;-57
2023/06/21 07:05:04;;;;;;;18.15;11.10;;;;;;;22.54;89.26;65363.69;5070651;28;20212;-59
2023/06/21 07:07:30;;;;;;;18.42;11.93;;;;;;;22.61;88.21;65370.94;5070470;28;20203;-57
2023/06/21 07:09:57;;;;;;;16.35;10.10;;;;;;;22.39;93.19;65344.53;5070781;28;20597;-59
2023/06/21 07:12:22;;;;;;;16.50;11.18;;;;;;;22.40;93.96;65345.63;5070608;28;20258;-57
2023/06/21 07:14:47;;;;;;;17.80;10.13;;;;;;;22.42;92.99;65347.84;5072395;28;20216;-57
2023/06/21 07:17:13;;;;;;;20.20;12.23;;;;;;;22.59;90.79;65366.13;5074338;28;20216;-58
2023/06/21 07:19:39;;;;;;;15.85;9.95;;;;;;;22.74;93.87;65382.75;5056484;28;20227;-57
2023/06/21 07:22:05;;;;;;;15.15;11.02;;;;;;;22.81;89.28;65390.50;5074250;28;20249;-61
2023/06/21 07:24:30;;;;;;;17.15;11.48;;;;;;;22.82;89.36;65393.63;5074578;28;20208;-63
2023/06/21 07:26:56;;;;;;;15.80;9.45;;;;;;;22.78;92.96;65389.75;5074192;28;20205;-58
2023/06/21 07:29:21;;;;;;;19.48;11.00;;;;;;;22.87;87.78;65394.56;5069915;23;20252;-58
2023/06/21 07:31:48;;;;;;;19.10;11.82;;;;;;;22.92;87.37;65400.13;5054073;28;20243;-61
2023/06/21 07:34:13;;;;;;;18.52;12.13;;;;;;;22.73;84.51;65376.50;5053798;28;20198;-60
2023/06/21 07:36:39;;;;;;;20.33;11.85;;;;;;;22.62;86.24;65369.47;5053907;28;20724;-57
2023/06/21 07:39:05;;;;;;;18.67;11.48;;;;;;;22.74;87.69;65382.75;5053590;28;20220;-58
2023/06/21 07:41:30;;;;;;;18.90;11.43;;;;;;;22.77;88.45;65386.06;5053796;28;20206;-60
2023/06/21 07:43:55;;;;;;;17.75;12.05;;;;;;;22.98;85.39;65406.22;5053882;28;20209;-60
2023/06/21 07:46:21;;;;;;;18.70;12.57;;;;;;;22.91;85.95;65401.56;5053651;28;20557;-59
2023/06/21 07:48:46;;;;;;;22.88;12.10;;;;;;;22.96;85.12;65406.56;5054097;28;20227;-58
2023/06/21 07:51:12;;;;;;;15.05;11.68;;;;;;;23.10;86.32;65422.63;5053601;28;20274;-58
2023/06/21 07:53:37;;;;;;;16.02;10.38;;;;;;;23.27;88.43;65438.88;5053729;28;20216;-63
2023/06/21 07:56:03;;;;;;;14.13;10.88;;;;;;;23.54;85.84;65467.69;5053641;28;20213;-62
2023/06/21 07:58:28;;;;;;;17.33;10.65;;;;;;;23.53;86.25;65469.19;5053617;28;20209;-57
2023/06/21 08:00:54;;;;;;;16.73;11.07;;;;;;;23.77;85.68;65498.34;5053557;28;20209;-58
2023/06/21 08:03:19;;;;;;;14.43;10.05;;;;;;;23.88;85.49;65510.53;5053461;28;20228;-58
2023/06/21 08:05:45;;;;;;;15.45;10.00;;;;;;;24.07;81.91;65529.06;5053346;28;20680;-59
2023/06/21 08:08:10;;;;;;;15.80;10.35;;;;;;;24.12;82.34;65534.59;5053360;28;20202;-58
2023/06/21 08:10:36;;;;;;;12.10;9.93;;;;;;;24.26;81.71;65547.53;5053397;28;20209;-66
2023/06/21 08:13:01;;;;;;;16.33;10.50;;;;;;;24.36;81.12;65560.66;5053250;28;20671;-62
2023/06/21 08:15:27;;;;;;;13.88;9.65;;;;;;;24.56;82.19;65583.41;5053070;28;20675;-60
2023/06/21 08:17:52;;;;;;;20.45;11.57;;;;;;;24.69;81.57;65597.81;5053013;28;20585;-60
2023/06/21 08:20:18;;;;;;;15.80;11.13;;;;;;;24.84;78.92;65614.47;5052959;28;20177;-58
2023/06/21 08:22:44;;;;;;;15.20;10.93;;;;;;;24.93;76.75;65623.91;5052951;28;20224;-61
2023/06/21 08:25:09;;;;;;;14.52;10.73;;;;;;;24.89;75.03;65617.44;5052848;28;20209;-63
2023/06/21 08:27:35;;;;;;;11.38;10.27;;;;;;;24.67;72.03;65595.59;5053166;28;20606;-63
2023/06/21 08:30:00;;;;;;;15.75;10.73;;;;;;;24.70;73.17;65595.78;5053233;28;20687;-57
2023/06/21 08:32:26;;;;;;;12.82;10.43;;;;;;;24.71;76.74;65596.88;5052963;28;20663;-60
2023/06/21 08:34:58;;;;;;;12.48;9.23;;;;;;;24.81;79.89;65610.59;5052649;28;20213;-61
2023/06/21 08:37:27;;;;;;;11.27;10.02;;;;;;;24.91;79.91;65619.09;5052977;28;20236;-58
2023/06/21 08:39:52;;;;;;;16.33;10.60;;;;;;;24.99;77.11;65631.09;5052711;28;20247;-58
2023/06/21 08:42:19;;;;;;;15.85;11.23;;;;;;;25.12;73.33;65644.44;5052510;28;20221;-58
2023/06/21 08:44:46;;;;;;;14.98;11.30;;;;;;;25.26;76.99;65660.53;5053215;28;20737;-62
2023/06/21 08:47:14;;;;;;;18.48;12.13;;;;;;;25.18;77.50;65651.66;5052688;28;20205;-58
2023/06/21 08:49:41;;;;;;;14.65;11.07;;;;;;;25.29;75.33;65661.25;5052868;28;20593;-63
2023/06/21 08:52:11;;;;;;;16.00;10.60;;;;;;;25.39;77.45;65674.41;5052771;28;20197;-61
2023/06/21 08:54:39;;;;;;;14.23;12.15;;;;;;;25.46;75.58;65682.75;5052450;28;20255;-62
2023/06/21 08:57:09;;;;;;;17.48;11.18;;;;;;;25.52;75.81;65686.25;5052807;28;20251;-63
2023/06/21 08:59:45;;;;;;;17.33;10.13;;;;;;;25.52;74.19;65689.41;5052486;28;20225;-57
2023/06/21 09:02:22;;;;;;;14.63;11.07;;;;;;;25.38;74.83;65673.28;5052594;28;20327;-63
2023/06/21 09:04:52;;;;;;;10.68;9.45;;;;;;;25.46;70.04;65682.19;5052375;28;20213;-64
2023/06/21 09:07:17;;;;;;;12.93;10.13;;;;;;;25.65;71.56;65700.69;5052562;28;20204;-57
2023/06/21 09:09:45;;;;;;;13.02;9.93;;;;;;;25.57;70.61;65692.34;5052651;28;20257;-63
2023/06/21 09:12:13;;;;;;;13.70;10.48;;;;;;;26.07;68.56;65744.78;5052433;28;20201;-60
2023/06/21 09:14:39;;;;;;;15.63;10.57;;;;;;;26.10;66.53;65752.72;5034364;28;20669;-61
2023/06/21 09:17:05;;;;;;;11.45;9.73;;;;;;;26.25;67.78;65766.78;5052328;28;20212;-57
2023/06/21 09:19:30;;;;;;;15.32;10.15;;;;;;;26.17;68.06;65755.88;5052446;28;20251;-63
2023/06/21 09:21:57;;;;;;;11.50;9.50;;;;;;;26.30;67.36;65772.88;5052198;28;20197;-62
2023/06/21 09:24:23;;;;;;;16.38;10.77;;;;;;;26.64;68.95;65810.66;5052226;28;20205;-62
2023/06/21 09:26:48;;;;;;;11.80;10.25;;;;;;;26.80;68.59;65827.91;5052105;28;20205;-59
2023/06/21 09:29:15;;;;;;;13.20;9.70;;;;;;;26.72;66.67;65819.03;5034335;28;20324;-57
2023/06/21 09:31:41;;;;;;;11.75;8.35;;;;;;;26.45;58.93;65792.16;5052090;28;20204;-57
2023/06/21 09:34:06;;;;;;;10.25;9.25;;;;;;;26.78;63.18;65825.13;5052303;28;20599;-57
2023/06/21 09:36:32;;;;;;;9.82;8.65;;;;;;;27.12;60.38;65863.47;5051421;28;20205;-61
2023/06/21 09:39:11;;;;;;;12.38;8.90;;;;;;;27.17;64.80;65871.63;5051813;28;20248;-59
2023/06/21 09:41:38;;;;;;;11.73;9.63;;;;;;;27.42;62.33;65898.88;5052205;28;20193;-58
2023/06/21 09:44:04;;;;;;;13.40;9.30;;;;;;;27.51;61.28;65903.16;5051983;28;20573;-57
2023/06/21 09:46:29;;;;;;;10.00;9.00;;;;;;;27.47;58.71;65904.47;5051876;28;20284;-57
2023/06/21 09:49:06;;;;;;;9.32;8.38;;;;;;;27.71;58.91;65925.97;5051685;28;20805;-58
2023/06/21 09:51:31;;;;;;;10.32;8.40;;;;;;;27.73;57.70;65932.81;5052001;28;20193;-58
2023/06/21 09:53:56;;;;;;;10.07;8.57;;;;;;;27.68;56.15;65925.19;5052015;28;20217;-58
2023/06/21 09:56:22;;;;;;;10.75;9.15;;;;;;;27.73;55.34;65930.78;5034056;28;20706;-57
2023/06/21 09:58:50;;;;;;;12.13;9.30;;;;;;;27.42;54.46;65893.69;5052000;28;20635;-60
2023/06/21 10:01:16;;;;;;;10.93;8.70;;;;;;;27.35;53.71;65889.06;5051640;28;20256;-62
2023/06/21 10:03:46;;;;;;;12.60;9.48;;;;;;;27.75;56.47;65935.59;5051784;28;20209;-61
2023/06/21 10:06:16;;;;;;;9.20;8.20;;;;;;;27.75;53.64;65929.84;5051829;28;20178;-58
2023/06/21 10:08:43;;;;;;;8.50;7.70;;;;;;;27.81;53.02;65939.66;5051761;28;20213;-59
2023/06/21 10:11:08;;;;;;;10.18;8.85;;;;;;;27.88;50.92;65944.84;5051534;28;20695;-56
2023/06/21 10:13:37;;;;;;;9.38;8.48;;;;;;;28.00;47.90;65960.25;5051824;28;20305;-58
2023/06/21 10:16:03;;;;;;;11.95;8.82;;;;;;;27.97;48.27;65957.50;5051552;28;20201;-57
2023/06/21 10:18:30;;;;;;;9.45;8.35;;;;;;;27.94;52.57;65951.53;5051508;28;20224;-61
2023/06/21 10:21:07;;;;;;;9.57;8.68;;;;;;;28.17;51.66;65979.19;5051384;28;20340;-60
2023/06/21 10:23:37;;;;;;;9.23;8.32;;;;;;;28.70;52.64;66035.03;5051500;28;20217;-60
2023/06/21 10:26:06;;;;;;;10.35;9.32;;;;;;;29.03;50.58;66072.31;5051364;28;20284;-57
2023/06/21 10:28:42;;;;;;;11.65;9.07;;;;;;;28.79;52.12;66047.63;5051286;28;20217;-60
2023/06/21 10:31:09;;;;;;;12.93;9.07;;;;;;;28.65;48.72;66032.06;5051322;28;20670;-57
2023/06/21 10:33:37;;;;;;;8.85;7.90;;;;;;;28.75;49.59;66043.19;5051169;28;20214;-57
2023/06/21 10:36:04;;;;;;;10.82;8.15;;;;;;;28.92;48.21;66065.28;5051116;28;20683;-58
2023/06/21 10:38:48;;;;;;;9.45;8.27;;;;;;;28.98;47.69;66069.34;5051460;28;20259;-58
2023/06/21 10:41:14;;;;;;;11.10;7.72;;;;;;;28.89;46.81;66058.75;5051210;28;20227;-59
2023/06/21 10:43:41;;;;;;;7.60;6.90;;;;;;;29.28;46.44;66099.63;5051138;28;20263;-57
2023/06/21 10:46:09;;;;;;;8.50;7.60;;;;;;;28.88;45.75;66057.66;5050948;28;20757;-57
2023/06/21 10:48:36;;;;;;;8.32;7.47;;;;;;;29.27;45.46;66098.50;5050224;28;20213;-62
2023/06/21 10:51:05;;;;;;;11.75;8.05;;;;;;;29.38;45.89;66110.19;5050874;28;20198;-58
2023/06/21 10:53:36;;;;;;;8.82;8.02;;;;;;;29.46;47.56;66122.25;5051104;28;20267;-57
2023/06/21 10:56:06;;;;;;;8.75;7.95;;;;;;;29.06;43.68;66080.28;5050990;28;20223;-56
2023/06/21 10:58:31;;;;;;;8.32;7.55;;;;;;;28.80;44.18;66051.34;5050699;28;20217;-60
2023/06/21 11:00:58;;;;;;;8.77;7.88;;;;;;;29.01;44.46;66075.28;5050972;28;20693;-62
2023/06/21 11:03:25;;;;;;;8.65;7.53;;;;;;;29.61;48.18;66141.56;5050793;28;20297;-60
2023/06/21 11:05:55;;;;;;;7.38;6.63;;;;;;;29.50;42.94;66126.72;5050733;28;20625;-57
2023/06/21 11:08:36;;;;;;;7.57;6.72;;;;;;;29.84;41.26;66164.63;5050905;28;20220;-57
2023/06/21 11:11:01;;;;;;;8.25;7.38;;;;;;;29.93;40.75;66170.94;5050765;28;20745;-56
2023/06/21 11:13:38;;;;;;;7.72;6.97;;;;;;;30.01;45.00;66179.84;5050626;28;20213;-57
2023/06/21 11:16:15;;;;;;;7.05;6.45;;;;;;;29.96;43.67;66176.88;5050905;28;20288;-58
2023/06/21 11:19:00;;;;;;;8.38;6.72;;;;;;;29.94;42.38;66172.06;5050538;28;20647;-61
2023/06/21 11:21:40;;;;;;;8.75;7.55;;;;;;;29.88;41.74;66167.97;5050469;28;20288;-62